Time;durP1;ratioP1;P1;durP2;ratioP2;P2;SDS_P1;SDS_P2;PMS_P1;PMS_P2;Temp;Humidity;BMP_temperature;BMP_pressure;BME280_temperature;BME280_humidity;BME280_pressure;Samples;Min_cycle;Max_cycle;Signal;HPM_P1;HPM_P2
2022/04/20 00:02:17;;;;;;;4.93;2.17;;;;;;;7.65;60.62;101414.53;5093477;28;20044;-94
2022/04/20 00:04:45;;;;;;;3.97;2.57;;;;;;;7.58;60.54;101397.78;5085482;28;20040;-94
2022/04/20 00:07:16;;;;;;;2.95;2.42;;;;;;;7.41;60.78;101387.72;5080892;28;20075;-93
2022/04/20 00:09:45;;;;;;;4.80;2.47;;;;;;;7.53;60.77;101411.78;5054903;28;20025;-93
2022/04/20 00:12:16;;;;;;;3.85;2.42;;;;;;;7.49;60.71;101404.44;5055333;28;20044;-95
2022/04/20 00:14:46;;;;;;;4.03;2.40;;;;;;;7.44;61.35;101394.44;5074578;28;20029;-94
2022/04/20 00:17:16;;;;;;;3.45;2.50;;;;;;;7.35;61.53;101388.59;5079708;28;20030;-94
2022/04/20 00:19:44;;;;;;;3.30;2.47;;;;;;;7.38;61.60;101398.03;5073812;28;20082;-96
2022/04/20 00:22:15;;;;;;;4.18;2.50;;;;;;;7.28;60.99;101395.88;5056521;28;20077;-94
2022/04/20 00:24:45;;;;;;;4.63;2.47;;;;;;;7.25;61.63;101396.31;5062503;28;20094;-94
2022/04/20 00:27:18;;;;;;;4.20;2.50;;;;;;;7.12;61.64;101394.59;5053302;28;20379;-94
2022/04/20 00:29:43;;;;;;;4.90;2.45;;;;;;;7.06;61.75;101393.63;5052425;28;20113;-93
2022/04/20 00:32:30;;;;;;;4.57;2.40;;;;;;;7.18;61.78;101409.72;5035087;28;20100;-93
2022/04/20 00:35:01;;;;;;;4.27;2.40;;;;;;;7.18;61.11;101415.03;5062431;28;20291;-93
2022/04/20 00:37:27;;;;;;;5.45;2.20;;;;;;;7.13;61.59;101405.00;5111719;23;20025;-94
2022/04/20 00:39:53;;;;;;;4.40;2.80;;;;;;;7.13;62.13;101421.00;5061121;28;20104;-94
2022/04/20 00:42:23;;;;;;;3.20;2.23;;;;;;;7.06;61.68;101417.59;5075510;28;20021;-93
2022/04/20 00:44:49;;;;;;;4.43;2.40;;;;;;;6.99;61.98;101418.72;5071073;28;20035;-94
2022/04/20 00:47:16;;;;;;;4.45;2.88;;;;;;;6.90;62.12;101415.50;5115879;22;20035;-93
2022/04/20 00:49:44;;;;;;;3.58;2.50;;;;;;;6.88;62.60;101425.56;5108402;28;20487;-93
2022/04/20 00:52:09;;;;;;;3.70;2.65;;;;;;;6.79;62.94;101431.16;5093944;28;20028;-93
2022/04/20 00:54:46;;;;;;;5.40;2.97;;;;;;;6.73;63.70;101426.72;5086586;28;20024;-93
2022/04/20 00:57:13;;;;;;;5.88;2.90;;;;;;;6.62;63.91;101411.41;5091504;28;20212;-92
2022/04/20 00:59:47;;;;;;;8.02;2.85;;;;;;;6.60;63.79;101414.31;5087189;28;20020;-93
2022/04/20 01:02:25;;;;;;;5.00;2.88;;;;;;;6.58;63.42;101418.19;5097814;28;20036;-93
2022/04/20 01:04:50;;;;;;;3.33;2.30;;;;;;;6.53;63.59;101418.06;5096520;28;20032;-94
2022/04/20 01:07:40;;;;;;;4.10;2.80;;;;;;;6.49;63.14;101421.13;5096811;28;20035;-93
2022/04/20 01:10:06;;;;;;;3.35;2.38;;;;;;;6.44;64.05;101426.28;5078010;28;20110;-94
2022/04/20 01:12:32;;;;;;;4.13;2.60;;;;;;;6.35;64.31;101417.75;5095537;28;20036;-93
2022/04/20 01:14:57;;;;;;;3.93;2.93;;;;;;;6.31;63.85;101427.19;5093021;28;20086;-93
2022/04/20 02:32:28;;;;;;;;;;;;;;;;;;;;;
2022/04/20 04:49:48;;;;;;;6.30;3.47;;;;;;;3.93;69.85;101476.41;5658542;22;20153;-92
2022/04/20 04:56:22;;;;;;;5.90;3.30;;;;;;;3.97;70.28;101502.53;4916872;23;20073;-92
2022/04/20 04:58:50;;;;;;;7.60;3.70;;;;;;;3.90;71.07;101499.84;5036217;28;20056;-94
2022/04/20 05:01:19;;;;;;;6.80;3.75;;;;;;;3.89;71.08;101495.56;4975703;28;20039;-92
2022/04/20 05:04:49;;;;;;;5.32;3.60;;;;;;;4.05;70.84;101505.84;4957244;28;20047;-93
2022/04/20 05:14:15;;;;;;;6.75;3.58;;;;;;;4.09;71.03;101493.81;1493867;26;20500;-90
2022/04/20 05:16:51;;;;;;;7.07;3.60;;;;;;;4.23;71.09;101509.78;5047113;28;20033;-87
2022/04/20 05:19:17;;;;;;;5.25;3.15;;;;;;;4.31;71.57;101522.88;5051573;28;20037;-88
2022/04/20 05:21:57;;;;;;;6.25;3.70;;;;;;;4.38;70.74;101520.25;5055059;28;20024;-91
2022/04/20 05:24:25;;;;;;;8.45;4.05;;;;;;;4.35;71.14;101505.56;5057495;28;20128;-90
2022/04/20 05:26:51;;;;;;;11.32;4.50;;;;;;;4.44;71.43;101511.50;5075627;28;20048;-90
2022/04/20 05:29:18;;;;;;;10.87;4.77;;;;;;;4.60;70.76;101526.22;5075107;28;20459;-89
2022/04/20 05:31:47;;;;;;;8.57;4.70;;;;;;;4.70;70.71;101524.03;5075435;28;20025;-88
2022/04/20 05:34:12;;;;;;;6.30;3.90;;;;;;;4.75;70.46;101519.94;5058426;28;20039;-89
2022/04/20 05:42:11;;;;;;;8.65;3.80;;;;;;;5.18;68.73;101524.06;5053418;28;20068;-88
2022/04/20 05:44:38;;;;;;;6.77;3.40;;;;;;;5.32;68.18;101539.00;5053670;28;20472;-88
2022/04/20 05:47:21;;;;;;;7.32;4.25;;;;;;;5.33;67.85;101526.50;5051898;28;20016;-89
2022/04/20 05:49:47;;;;;;;6.80;3.80;;;;;;;5.43;67.44;101521.59;5050885;28;20037;-88
2022/04/20 05:52:13;;;;;;;8.65;3.78;;;;;;;5.56;68.02;101523.44;5052776;28;20384;-89
2022/04/20 05:54:44;;;;;;;9.70;3.93;;;;;;;5.73;66.45;101526.47;5049786;28;20036;-89
2022/04/20 05:57:12;;;;;;;10.18;3.80;;;;;;;5.88;66.75;101527.03;5066871;22;20546;-88
2022/04/20 05:59:43;;;;;;;8.95;3.40;;;;;;;5.94;66.30;101532.53;5051061;28;20071;-90
2022/04/20 06:05:30;;;;;;;6.05;3.35;;;;;;;6.16;65.06;101515.31;5058285;28;20101;-90
2022/04/20 06:07:59;;;;;;;6.67;3.20;;;;;;;6.30;65.38;101512.59;5075511;28;20029;-89
2022/04/20 06:10:24;;;;;;;8.68;3.47;;;;;;;6.60;67.39;101520.00;5074084;28;20067;-89
2022/04/20 06:12:50;;;;;;;8.70;4.00;;;;;;;6.67;64.68;101536.75;5073514;28;20033;-90
2022/04/20 06:15:18;;;;;;;9.00;4.20;;;;;;;6.74;64.62;101526.06;5073040;28;20035;-88
2022/04/20 06:17:46;;;;;;;9.35;3.78;;;;;;;6.76;63.79;101524.81;5068000;28;20051;-88
2022/04/20 06:20:14;;;;;;;7.65;4.20;;;;;;;6.84;63.67;101526.44;5051965;28;20033;-87
2022/04/20 06:22:56;;;;;;;6.28;3.67;;;;;;;6.86;64.14;101527.00;5067810;28;20515;-89
2022/04/20 06:25:30;;;;;;;8.55;3.90;;;;;;;6.89;63.65;101528.44;5085617;28;20017;-88
2022/04/20 06:28:25;;;;;;;5.90;3.85;;;;;;;6.94;63.55;101532.09;5093044;28;20031;-89
2022/04/20 06:30:59;;;;;;;7.97;3.88;;;;;;;7.04;63.48;101534.25;5010985;28;20090;-88
2022/04/20 06:33:24;;;;;;;8.65;4.18;;;;;;;7.08;64.43;101522.16;4997004;28;20058;-89
2022/04/20 06:38:25;;;;;;;7.53;3.67;;;;;;;7.31;62.88;101541.22;6160925;22;20019;-87
2022/04/20 07:01:28;;;;;;;6.05;3.80;;;;;;;8.17;59.35;101550.19;5053372;28;20174;-88
2022/04/20 07:04:35;;;;;;;;;;;;;;;;;;;;;
2022/04/20 07:14:16;;;;;;;8.77;3.90;;;;;;;8.70;58.99;101552.44;4999548;28;20340;-90
2022/04/20 07:17:22;;;;;;;7.53;3.28;;;;;;;8.82;58.45;101545.28;5301393;23;20055;-91
2022/04/20 07:19:48;;;;;;;6.28;3.95;;;;;;;8.89;58.42;101546.00;5051257;28;20131;-89
2022/04/20 07:22:26;;;;;;;7.80;3.83;;;;;;;8.99;57.47;101547.28;5035195;28;20112;-90
2022/04/20 07:31:28;;;;;;;5.10;3.90;;;;;;;9.37;57.35;101549.56;5051955;28;20124;-90
2022/04/20 07:52:50;;;;;;;8.90;3.17;;;;;;;10.36;53.89;101560.50;5046354;28;20405;-92
2022/04/20 07:55:46;;;;;;;4.17;3.40;;;;;;;10.47;53.00;101552.66;5043865;28;20295;-90
2022/04/20 08:50:01;;;;;;;4.10;3.13;;;;;;;13.04;45.17;101562.63;5071890;28;20483;-86
2022/04/20 08:55:33;;;;;;;5.75;3.53;;;;;;;13.20;45.18;101549.28;5069492;23;20232;-88
2022/04/20 08:58:27;;;;;;;6.85;3.85;;;;;;;13.38;44.18;101559.63;5039759;28;20041;-89
2022/04/20 09:00:52;;;;;;;5.78;3.80;;;;;;;13.42;43.42;101552.69;5057207;28;20020;-89
2022/04/20 09:03:39;;;;;;;8.47;3.60;;;;;;;13.57;43.96;101564.63;5059113;28;20661;-90
2022/04/20 09:10:32;;;;;;;5.25;4.10;;;;;;;13.93;42.46;101560.28;5013454;28;20068;-93
2022/04/20 09:13:33;;;;;;;5.80;3.50;;;;;;;14.06;42.38;101556.25;5016139;28;20406;-94
2022/04/20 09:16:38;;;;;;;5.40;3.30;;;;;;;14.15;41.71;101553.06;5001017;28;20042;-91
2022/04/20 11:04:46;;;;;;;6.13;2.40;;;;;;;17.46;34.08;101478.94;5078690;22;20055;-93
2022/04/20 11:18:38;;;;;;;4.13;2.20;;;;;;;17.45;34.94;101453.72;5047077;28;20035;-89
2022/04/20 11:31:14;;;;;;;3.35;2.40;;;;;;;17.66;33.66;101461.59;5401078;22;20048;-92
2022/04/20 11:34:00;;;;;;;7.05;2.15;;;;;;;17.68;33.35;101454.81;5062666;23;20142;-93
2022/04/20 12:18:16;;;;;;;3.28;2.70;;;;;;;18.38;32.09;101394.72;5348866;22;20052;-86
2022/04/20 12:23:46;;;;;;;2.60;2.30;;;;;;;18.69;32.62;101415.91;5091524;22;20804;-86
2022/04/20 12:26:55;;;;;;;3.65;2.38;;;;;;;18.87;31.35;101390.59;5044521;28;20029;-88
2022/04/20 12:29:29;;;;;;;3.83;2.45;;;;;;;18.76;31.97;101389.19;5035357;28;20120;-87
2022/04/20 12:31:55;;;;;;;3.38;3.00;;;;;;;18.81;31.45;101388.28;5039518;28;20025;-85
2022/04/20 12:48:26;;;;;;;3.27;2.70;;;;;;;18.89;31.48;101376.72;5367826;22;20048;-87
2022/04/20 12:54:28;;;;;;;2.60;2.22;;;;;;;19.29;31.28;101376.22;5460819;22;20134;-86
2022/04/20 13:04:02;;;;;;;7.10;2.72;;;;;;;19.35;31.63;101373.09;5054559;28;20208;-87
2022/04/20 13:06:56;;;;;;;5.50;2.90;;;;;;;19.46;31.80;101376.41;5065168;28;20059;-87
2022/04/20 13:12:59;;;;;;;5.55;3.20;;;;;;;19.59;31.29;101361.19;5134316;22;20075;-86
2022/04/20 13:15:46;;;;;;;4.15;2.97;;;;;;;19.50;31.86;101352.13;5072804;28;20029;-88
2022/04/20 13:18:11;;;;;;;4.43;2.85;;;;;;;19.57;31.53;101349.00;5054480;28;20036;-87
2022/04/20 13:20:51;;;;;;;5.53;3.00;;;;;;;19.76;32.24;101354.28;5055212;28;20112;-87
2022/04/20 13:24:02;;;;;;;3.53;3.13;;;;;;;19.93;31.22;101364.50;5055579;28;20489;-88
2022/04/20 13:30:59;;;;;;;4.38;3.15;;;;;;;19.68;31.47;101353.09;5079195;28;20074;-88
2022/04/20 13:35:55;;;;;;;4.22;3.25;;;;;;;19.32;31.81;101330.22;5026539;28;20517;-88
2022/04/20 13:38:31;;;;;;;8.30;3.37;;;;;;;19.37;32.23;101329.31;5012895;28;20078;-87
2022/04/20 13:40:56;;;;;;;5.07;3.10;;;;;;;19.38;31.20;101322.78;5004490;28;20022;-88
2022/04/20 13:43:47;;;;;;;4.10;2.77;;;;;;;19.59;31.63;101320.41;5003265;28;20019;-89
2022/04/20 13:46:19;;;;;;;7.63;2.75;;;;;;;19.68;30.64;101328.63;4980442;28;20116;-87
2022/04/20 13:48:51;;;;;;;4.05;3.10;;;;;;;19.59;31.21;101339.44;5013846;28;20034;-87
2022/04/20 14:14:46;;;;;;;5.57;2.75;;;;;;;20.08;30.93;101296.16;5829321;22;20083;-90
2022/04/20 15:08:28;;;;;;;6.40;3.50;;;;;;;20.05;31.79;101285.09;5075760;28;20041;-93
2022/04/20 15:11:21;;;;;;;4.57;3.33;;;;;;;19.89;32.07;101284.69;5077168;28;20032;-93
2022/04/20 15:13:48;;;;;;;7.43;3.05;;;;;;;19.72;31.58;101266.28;5098555;28;20039;-92
2022/04/20 15:16:55;;;;;;;8.50;3.28;;;;;;;19.77;32.14;101275.13;5093388;28;20035;-91
2022/04/20 15:19:21;;;;;;;4.38;3.25;;;;;;;19.77;32.43;101263.47;5092425;28;20052;-93
2022/04/20 15:28:38;;;;;;;;;;;;;;;;;;;;;
2022/04/20 15:40:16;;;;;;;11.98;4.07;;;;;;;20.00;32.64;101247.94;5054573;28;20047;-92
2022/04/20 16:08:29;;;;;;;9.05;3.70;;;;;;;20.06;33.42;101256.78;5252044;22;20052;-92
2022/04/20 16:10:55;;;;;;;5.35;3.55;;;;;;;19.95;32.91;101250.78;5058058;28;20181;-92
2022/04/20 16:13:22;;;;;;;7.05;3.40;;;;;;;19.82;33.12;101253.25;5074403;28;20538;-92
2022/04/20 16:19:17;;;;;;;5.80;3.20;;;;;;;20.09;33.87;101254.22;5082232;23;20113;-92
2022/04/20 16:21:50;;;;;;;7.27;3.47;;;;;;;20.20;32.96;101259.41;5082294;23;20956;-92
2022/04/20 16:40:31;;;;;;;3.67;3.33;;;;;;;19.99;34.62;101246.34;5917632;22;20569;-93
2022/04/20 16:42:56;;;;;;;5.63;3.58;;;;;;;19.81;33.65;101253.56;5069203;28;20064;-92
2022/04/20 16:45:47;;;;;;;3.97;3.30;;;;;;;19.90;34.44;101251.72;5068557;28;20475;-92
2022/04/20 16:56:29;;;;;;;4.00;2.70;;;;;;;19.87;34.28;101236.03;5490347;22;20064;-95
2022/04/20 16:58:57;;;;;;;4.72;3.28;;;;;;;19.63;33.84;101241.78;5064846;28;20052;-94
2022/04/20 17:06:25;;;;;;;5.10;3.17;;;;;;;19.15;34.59;101246.69;5095016;28;20387;-90
2022/04/20 17:08:53;;;;;;;5.50;3.00;;;;;;;18.83;34.94;101245.69;5095009;28;20023;-88
2022/04/20 17:11:23;;;;;;;5.43;2.80;;;;;;;18.67;35.37;101241.69;5092982;28;20039;-88
2022/04/20 17:16:18;;;;;;;4.35;2.28;;;;;;;18.55;35.53;101248.44;5098361;28;20105;-89
2022/04/20 17:18:46;;;;;;;3.80;2.85;;;;;;;18.37;35.78;101243.91;5077041;28;20039;-87
2022/04/20 17:26:56;;;;;;;;;;;;;;;;;;;;;
2022/04/20 17:33:57;;;;;;;3.00;2.20;;;;;;;17.25;37.53;101217.25;5015975;28;20069;-90
2022/04/20 17:46:32;;;;;;;3.25;2.10;;;;;;;16.35;39.91;101234.06;5074347;28;20066;-89
2022/04/20 18:02:29;;;;;;;4.05;2.53;;;;;;;15.60;41.53;101221.78;5071101;28;20071;-87
2022/04/20 18:05:19;;;;;;;;;;;;;;;;;;;;;
2022/04/20 18:10:16;;;;;;;2.40;2.20;;;;;;;15.21;43.20;101219.88;5050122;28;20056;-90
2022/04/20 18:13:00;;;;;;;3.93;2.53;;;;;;;15.10;43.31;101214.53;5049391;28;20331;-90
2022/04/20 18:15:49;;;;;;;5.03;2.22;;;;;;;15.10;43.41;101232.63;5041398;28;20029;-90
2022/04/20 18:18:15;;;;;;;3.05;2.53;;;;;;;14.98;44.13;101232.94;5163588;22;20515;-91
2022/04/20 18:20:41;;;;;;;5.13;2.42;;;;;;;14.90;44.24;101242.44;5027811;28;20123;-89
2022/04/20 18:23:06;;;;;;;4.67;2.50;;;;;;;14.82;44.17;101237.59;5072943;28;20017;-90
2022/04/20 18:25:32;;;;;;;6.72;2.40;;;;;;;14.61;44.22;101228.75;5613702;22;20053;-92
2022/04/20 19:03:57;;;;;;;3.88;2.30;;;;;;;13.34;47.31;101254.38;5636408;22;20059;-92
2022/04/20 19:09:52;;;;;;;3.55;2.00;;;;;;;13.03;47.98;101246.22;5362916;22;20024;-90
2022/04/20 19:12:46;;;;;;;6.50;2.10;;;;;;;13.03;48.27;101262.38;5381767;22;20069;-91
2022/04/20 19:16:01;;;;;;;4.67;2.10;;;;;;;12.93;48.68;101265.03;5062987;28;20693;-92
2022/04/20 19:34:15;;;;;;;2.58;1.58;;;;;;;12.38;51.13;101271.47;4952509;29;20058;-92
2022/04/20 19:36:44;;;;;;;3.63;1.77;;;;;;;12.41;50.70;101288.97;4952569;29;20039;-90
2022/04/20 19:39:23;;;;;;;2.35;1.75;;;;;;;12.29;50.50;101285.63;4967195;28;20030;-92
2022/04/20 19:42:13;;;;;;;2.60;2.08;;;;;;;12.23;50.12;101288.28;4969144;28;20147;-93
2022/04/20 19:44:48;;;;;;;3.13;1.80;;;;;;;12.14;50.74;101284.47;4971605;28;20118;-93
2022/04/20 19:47:44;;;;;;;5.70;1.77;;;;;;;12.15;50.42;101280.72;4972531;28;20043;-94
2022/04/20 19:53:12;;;;;;;3.47;2.08;;;;;;;11.96;51.28;101285.63;4956817;28;20253;-93
2022/04/20 19:55:43;;;;;;;4.85;2.00;;;;;;;11.81;50.95;101264.84;4974255;28;20309;-92
2022/04/20 19:58:09;;;;;;;4.43;2.30;;;;;;;11.81;51.92;101275.56;5046129;23;20056;-93
2022/04/20 20:01:00;;;;;;;;;;;;;;;;;;;;;
2022/04/20 20:03:27;;;;;;;3.78;2.20;;;;;;;11.74;52.21;101269.59;5042454;28;20226;-94
2022/04/20 20:08:37;;;;;;;5.70;2.63;;;;;;;11.69;51.42;101288.31;5083124;28;20112;-93
2022/04/20 20:11:03;;;;;;;5.47;2.23;;;;;;;11.66;52.24;101289.66;5090294;28;20028;-93
2022/04/20 20:13:28;;;;;;;4.70;2.45;;;;;;;11.55;51.85;101282.56;5088262;28;20025;-92
2022/04/20 20:15:56;;;;;;;5.17;2.07;;;;;;;11.51;52.27;101283.06;5090137;28;20017;-92
2022/04/20 20:18:22;;;;;;;6.80;2.60;;;;;;;11.46;52.93;101279.53;5091244;28;20036;-91
2022/04/20 20:20:48;;;;;;;7.13;2.60;;;;;;;11.36;52.41;101278.34;5076747;28;20031;-92
2022/04/20 20:31:26;;;;;;;3.33;2.53;;;;;;;11.12;54.29;101285.06;5076472;28;20063;-92
2022/04/20 20:33:51;;;;;;;8.23;2.60;;;;;;;11.05;54.53;101287.91;5063734;28;20655;-92
2022/04/20 20:36:17;;;;;;;7.17;2.80;;;;;;;10.94;54.70;101276.28;5064039;28;20029;-94
2022/04/20 20:38:47;;;;;;;3.47;2.53;;;;;;;10.93;54.70;101285.38;5078650;28;20035;-93
2022/04/20 20:41:19;;;;;;;6.75;3.00;;;;;;;10.84;55.47;101278.81;5078986;28;20021;-93
2022/04/20 20:43:54;;;;;;;4.97;2.65;;;;;;;10.80;55.19;101280.34;5080351;28;20040;-92
2022/04/20 20:46:22;;;;;;;5.18;3.05;;;;;;;10.80;55.86;101288.41;5075709;28;20052;-92
2022/04/20 20:52:04;;;;;;;5.32;3.13;;;;;;;10.56;55.93;101272.56;5077102;28;20103;-92
2022/04/20 20:54:30;;;;;;;4.88;2.90;;;;;;;10.49;56.36;101262.00;5076011;28;20120;-92
2022/04/20 20:57:00;;;;;;;6.18;3.20;;;;;;;10.47;56.51;101269.47;5062558;28;20024;-92
2022/04/20 20:59:27;;;;;;;5.93;2.95;;;;;;;10.53;56.79;101284.56;5075110;28;20420;-92
2022/04/20 21:02:08;;;;;;;4.83;3.10;;;;;;;10.42;57.26;101280.13;5068899;28;20047;-93
2022/04/20 21:11:27;;;;;;;7.63;3.08;;;;;;;10.29;58.11;101274.00;5082468;23;20077;-89
2022/04/20 21:13:55;;;;;;;3.97;3.03;;;;;;;10.25;58.17;101280.09;5076614;28;20112;-90
2022/04/20 21:16:49;;;;;;;7.63;3.35;;;;;;;10.23;57.77;101279.50;5054177;28;20057;-90
2022/04/20 21:19:18;;;;;;;7.25;3.25;;;;;;;10.13;58.48;101274.84;5037413;28;20035;-89
2022/04/20 21:22:18;;;;;;;4.97;3.00;;;;;;;10.15;57.71;101283.41;5092607;22;20045;-89
2022/04/20 21:24:54;;;;;;;5.30;3.20;;;;;;;10.09;59.39;101279.84;5060098;28;20039;-89
2022/04/20 21:27:24;;;;;;;9.18;3.58;;;;;;;10.03;58.98;101270.13;5030119;28;20176;-89
2022/04/20 21:30:30;;;;;;;4.40;3.30;;;;;;;10.04;58.39;101278.97;5025885;28;20122;-89
2022/04/20 21:33:23;;;;;;;6.00;3.60;;;;;;;9.98;58.67;101278.06;4998850;28;20293;-89
2022/04/20 21:35:51;;;;;;;7.18;3.70;;;;;;;9.81;59.13;101265.47;5039112;28;20033;-90
2022/04/20 21:44:31;;;;;;;6.38;3.55;;;;;;;9.60;59.24;101264.28;5607914;23;20059;-89
2022/04/20 21:50:23;;;;;;;6.53;3.50;;;;;;;9.53;60.37;101267.13;5117001;23;20055;-89
2022/04/20 22:38:21;;;;;;;7.43;3.72;;;;;;;8.67;62.57;101286.56;5351615;22;20052;-91
2022/04/20 22:41:35;;;;;;;;;;;;;;;;;;;;;
2022/04/20 23:03:41;;;;;;;;;;;;;;;;;;;;;
2022/04/20 23:06:57;;;;;;;6.30;4.00;;;;;;;8.12;64.74;101280.47;5073257;28;20028;-90
2022/04/20 23:19:25;;;;;;;6.35;4.35;;;;;;;7.92;66.65;101270.09;5016956;22;20030;-95
2022/04/20 23:22:18;;;;;;;5.93;3.92;;;;;;;7.97;66.09;101272.06;5074966;28;20045;-94
2022/04/20 23:30:31;;;;;;;9.57;3.63;;;;;;;7.80;66.65;101263.91;5074242;28;20326;-95
2022/04/20 23:33:20;;;;;;;6.28;4.20;;;;;;;7.71;66.27;101264.22;5053404;28;20248;-95
2022/04/20 23:35:46;;;;;;;7.72;4.00;;;;;;;7.68;67.26;101258.53;4971922;28;20703;-93
2022/04/20 23:38:18;;;;;;;9.55;4.38;;;;;;;7.66;67.16;101258.78;4981070;28;20522;-95
2022/04/20 23:40:53;;;;;;;9.52;4.03;;;;;;;7.69;67.24;101260.97;5072289;28;20045;-95
2022/04/20 23:43:18;;;;;;;8.02;4.40;;;;;;;7.69;67.57;101266.31;5074369;28;20139;-94
2022/04/20 23:46:19;;;;;;;7.47;3.90;;;;;;;7.60;67.86;101259.69;5055193;28;20040;-95
2022/04/20 23:51:17;;;;;;;9.63;4.90;;;;;;;7.61;68.06;101253.31;5158535;23;20051;-95
2022/04/20 23:54:00;;;;;;;8.32;4.00;;;;;;;7.60;67.28;101256.19;5035894;28;20039;-93
2022/04/20 23:56:31;;;;;;;7.93;4.38;;;;;;;7.48;67.86;101242.84;5071382;28;20032;-92
